sensor_id;sensor_type;location;lat;lon;timestamp;temperature;humidity
5280;DHT22;2663;53.588;10.010;2023-02-11T00:00:18;7.00;99.90
5280;DHT22;2663;53.588;10.010;2023-02-11T00:02:45;6.90;99.90
5280;DHT22;2663;53.588;10.010;2023-02-11T00:05:13;7.00;99.90
5280;DHT22;2663;53.588;10.010;2023-02-11T00:07:40;7.00;99.90
5280;DHT22;2663;53.588;10.010;2023-02-11T00:10:07;6.90;99.90
5280;DHT22;2663;53.588;10.010;2023-02-11T00:12:36;7.00;99.90
5280;DHT22;2663;53.588;10.010;2023-02-11T00:15:04;7.00;99.90
5280;DHT22;2663;53.588;10.010;2023-02-11T00:17:31;7.10;99.90
5280;DHT22;2663;53.588;10.010;2023-02-11T00:19:58;7.00;99.90
5280;DHT22;2663;53.588;10.010;2023-02-11T00:22:25;7.00;99.90
5280;DHT22;2663;53.588;10.010;2023-02-11T00:24:52;7.00;99.90
5280;DHT22;2663;53.588;10.010;2023-02-11T00:27:18;7.00;99.90
5280;DHT22;2663;53.588;10.010;2023-02-11T00:29:45;7.00;99.90
5280;DHT22;2663;53.588;10.010;2023-02-11T00:32:12;7.00;99.90
5280;DHT22;2663;53.588;10.010;2023-02-11T00:34:38;7.00;99.90
5280;DHT22;2663;53.588;10.010;2023-02-11T00:37:05;7.00;99.90
5280;DHT22;2663;53.588;10.010;2023-02-11T00:39:32;7.00;99.90
5280;DHT22;2663;53.588;10.010;2023-02-11T00:41:59;6.90;99.90
5280;DHT22;2663;53.588;10.010;2023-02-11T00:44:25;6.90;99.90
5280;DHT22;2663;53.588;10.010;2023-02-11T00:46:52;7.00;99.90
5280;DHT22;2663;53.588;10.010;2023-02-11T00:49:19;6.90;99.90
5280;DHT22;2663;53.588;10.010;2023-02-11T00:51:45;6.90;99.90
5280;DHT22;2663;53.588;10.010;2023-02-11T00:54:12;6.90;99.90
5280;DHT22;2663;53.588;10.010;2023-02-11T00:56:39;6.90;99.90
5280;DHT22;2663;53.588;10.010;2023-02-11T00:59:05;6.90;99.90
5280;DHT22;2663;53.588;10.010;2023-02-11T01:01:32;6.90;99.90
5280;DHT22;2663;53.588;10.010;2023-02-11T01:04:00;6.90;99.90
5280;DHT22;2663;53.588;10.010;2023-02-11T01:06:26;7.00;99.90
5280;DHT22;2663;53.588;10.010;2023-02-11T01:08:53;6.90;99.90
5280;DHT22;2663;53.588;10.010;2023-02-11T01:11:20;6.80;99.90
5280;DHT22;2663;53.588;10.010;2023-02-11T01:13:48;6.90;99.90
5280;DHT22;2663;53.588;10.010;2023-02-11T01:16:15;6.90;99.90
5280;DHT22;2663;53.588;10.010;2023-02-11T01:18:43;6.90;99.90
5280;DHT22;2663;53.588;10.010;2023-02-11T01:21:10;7.00;99.90
5280;DHT22;2663;53.588;10.010;2023-02-11T01:23:36;7.00;99.90
5280;DHT22;2663;53.588;10.010;2023-02-11T01:26:04;7.00;99.90
5280;DHT22;2663;53.588;10.010;2023-02-11T01:28:30;7.70;99.90
5280;DHT22;2663;53.588;10.010;2023-02-11T01:30:59;7.00;99.90
5280;DHT22;2663;53.588;10.010;2023-02-11T01:33:26;7.00;99.90
5280;DHT22;2663;53.588;10.010;2023-02-11T01:35:52;7.00;99.90
5280;DHT22;2663;53.588;10.010;2023-02-11T01:38:21;6.90;99.90
5280;DHT22;2663;53.588;10.010;2023-02-11T01:40:58;6.90;99.90
5280;DHT22;2663;53.588;10.010;2023-02-11T01:43:26;7.00;99.90
5280;DHT22;2663;53.588;10.010;2023-02-11T01:48:44;7.10;99.90
5280;DHT22;2663;53.588;10.010;2023-02-11T01:51:25;7.00;99.90
5280;DHT22;2663;53.588;10.010;2023-02-11T01:53:53;7.10;99.90
5280;DHT22;2663;53.588;10.010;2023-02-11T01:56:44;7.00;99.90
5280;DHT22;2663;53.588;10.010;2023-02-11T01:59:47;7.00;99.90
5280;DHT22;2663;53.588;10.010;2023-02-11T02:02:17;7.00;99.90
5280;DHT22;2663;53.588;10.010;2023-02-11T02:04:54;7.10;99.90
5280;DHT22;2663;53.588;10.010;2023-02-11T02:07:32;7.00;99.90
5280;DHT22;2663;53.588;10.010;2023-02-11T02:10:09;6.90;99.90
5280;DHT22;2663;53.588;10.010;2023-02-11T02:12:36;6.90;99.90
5280;DHT22;2663;53.588;10.010;2023-02-11T02:15:25;6.90;99.90
5280;DHT22;2663;53.588;10.010;2023-02-11T02:21:09;6.90;99.90
5280;DHT22;2663;53.588;10.010;2023-02-11T02:23:54;7.00;99.90
5280;DHT22;2663;53.588;10.010;2023-02-11T02:26:42;6.90;99.90
5280;DHT22;2663;53.588;10.010;2023-02-11T02:35:03;7.00;99.90
5280;DHT22;2663;53.588;10.010;2023-02-11T02:37:49;7.00;99.90
5280;DHT22;2663;53.588;10.010;2023-02-11T02:40:23;7.10;99.90
5280;DHT22;2663;53.588;10.010;2023-02-11T02:42:51;7.10;99.90
5280;DHT22;2663;53.588;10.010;2023-02-11T02:45:19;7.10;99.90
5280;DHT22;2663;53.588;10.010;2023-02-11T02:47:46;7.10;99.90
5280;DHT22;2663;53.588;10.010;2023-02-11T02:50:14;7.20;99.90
5280;DHT22;2663;53.588;10.010;2023-02-11T02:52:57;7.20;99.90
5280;DHT22;2663;53.588;10.010;2023-02-11T02:58:32;7.20;99.90
5280;DHT22;2663;53.588;10.010;2023-02-11T03:01:27;7.20;99.90
5280;DHT22;2663;53.588;10.010;2023-02-11T03:06:45;7.30;99.90
5280;DHT22;2663;53.588;10.010;2023-02-11T03:09:23;7.30;99.90
5280;DHT22;2663;53.588;10.010;2023-02-11T03:11:52;7.30;99.90
5280;DHT22;2663;53.588;10.010;2023-02-11T03:14:21;7.30;99.90
5280;DHT22;2663;53.588;10.010;2023-02-11T03:16:54;7.30;99.90
5280;DHT22;2663;53.588;10.010;2023-02-11T03:19:33;7.30;99.90
5280;DHT22;2663;53.588;10.010;2023-02-11T03:22:02;7.30;99.90
5280;DHT22;2663;53.588;10.010;2023-02-11T03:24:33;7.30;99.90
5280;DHT22;2663;53.588;10.010;2023-02-11T03:27:14;7.30;99.90
5280;DHT22;2663;53.588;10.010;2023-02-11T03:32:40;7.30;99.90
5280;DHT22;2663;53.588;10.010;2023-02-11T03:35:19;7.30;99.90
5280;DHT22;2663;53.588;10.010;2023-02-11T03:38:05;7.30;99.90
5280;DHT22;2663;53.588;10.010;2023-02-11T03:40:37;7.30;99.90
5280;DHT22;2663;53.588;10.010;2023-02-11T03:43:47;7.40;99.90
5280;DHT22;2663;53.588;10.010;2023-02-11T03:45:55;7.40;99.90
5280;DHT22;2663;53.588;10.010;2023-02-11T03:48:34;7.40;99.90
5280;DHT22;2663;53.588;10.010;2023-02-11T03:51:06;7.40;99.90
5280;DHT22;2663;53.588;10.010;2023-02-11T03:53:33;7.50;99.90
5280;DHT22;2663;53.588;10.010;2023-02-11T03:56:02;7.50;99.90
5280;DHT22;2663;53.588;10.010;2023-02-11T03:58:31;7.50;99.90
5280;DHT22;2663;53.588;10.010;2023-02-11T04:00:58;7.60;99.90
5280;DHT22;2663;53.588;10.010;2023-02-11T04:03:24;7.50;99.90
5280;DHT22;2663;53.588;10.010;2023-02-11T04:05:51;7.50;99.90
5280;DHT22;2663;53.588;10.010;2023-02-11T04:08:18;7.60;99.90
5280;DHT22;2663;53.588;10.010;2023-02-11T04:10:45;7.60;99.90
5280;DHT22;2663;53.588;10.010;2023-02-11T04:13:11;7.70;99.90
5280;DHT22;2663;53.588;10.010;2023-02-11T04:15:38;7.70;99.90
5280;DHT22;2663;53.588;10.010;2023-02-11T04:18:05;7.70;99.90
5280;DHT22;2663;53.588;10.010;2023-02-11T04:20:32;7.70;99.90
5280;DHT22;2663;53.588;10.010;2023-02-11T04:22:59;7.70;99.90
5280;DHT22;2663;53.588;10.010;2023-02-11T04:25:25;7.70;99.90
5280;DHT22;2663;53.588;10.010;2023-02-11T04:27:52;7.80;99.90
5280;DHT22;2663;53.588;10.010;2023-02-11T04:30:19;7.80;99.90
5280;DHT22;2663;53.588;10.010;2023-02-11T04:32:46;7.80;99.90
5280;DHT22;2663;53.588;10.010;2023-02-11T04:35:12;7.90;99.90
5280;DHT22;2663;53.588;10.010;2023-02-11T04:37:39;7.90;99.90
5280;DHT22;2663;53.588;10.010;2023-02-11T04:40:06;7.90;99.90
5280;DHT22;2663;53.588;10.010;2023-02-11T04:42:33;7.90;99.90
5280;DHT22;2663;53.588;10.010;2023-02-11T04:45:00;7.90;99.90
5280;DHT22;2663;53.588;10.010;2023-02-11T04:47:27;7.90;99.90
5280;DHT22;2663;53.588;10.010;2023-02-11T04:49:53;8.00;99.90
5280;DHT22;2663;53.588;10.010;2023-02-11T04:52:20;8.00;99.90
5280;DHT22;2663;53.588;10.010;2023-02-11T04:54:47;8.00;99.90
5280;DHT22;2663;53.588;10.010;2023-02-11T04:57:14;8.00;99.90
5280;DHT22;2663;53.588;10.010;2023-02-11T04:59:41;8.00;99.90
5280;DHT22;2663;53.588;10.010;2023-02-11T05:02:07;8.00;99.90
5280;DHT22;2663;53.588;10.010;2023-02-11T05:04:34;8.00;99.90
5280;DHT22;2663;53.588;10.010;2023-02-11T05:07:01;8.00;99.90
5280;DHT22;2663;53.588;10.010;2023-02-11T05:09:27;7.90;99.90
5280;DHT22;2663;53.588;10.010;2023-02-11T05:11:54;7.90;99.90
5280;DHT22;2663;53.588;10.010;2023-02-11T05:14:21;8.00;99.90
5280;DHT22;2663;53.588;10.010;2023-02-11T05:16:47;10.00;99.90
5280;DHT22;2663;53.588;10.010;2023-02-11T05:19:14;7.90;99.90
5280;DHT22;2663;53.588;10.010;2023-02-11T05:21:41;7.90;99.90
5280;DHT22;2663;53.588;10.010;2023-02-11T05:24:25;7.90;99.90
5280;DHT22;2663;53.588;10.010;2023-02-11T05:26:52;7.90;99.90
5280;DHT22;2663;53.588;10.010;2023-02-11T05:29:19;7.90;99.90
5280;DHT22;2663;53.588;10.010;2023-02-11T05:31:45;7.90;99.90
5280;DHT22;2663;53.588;10.010;2023-02-11T05:34:12;7.80;99.90
5280;DHT22;2663;53.588;10.010;2023-02-11T05:36:39;7.90;99.90
5280;DHT22;2663;53.588;10.010;2023-02-11T05:39:05;9.80;99.90
5280;DHT22;2663;53.588;10.010;2023-02-11T05:41:32;7.80;99.90
5280;DHT22;2663;53.588;10.010;2023-02-11T05:43:59;7.80;99.90
5280;DHT22;2663;53.588;10.010;2023-02-11T05:46:25;7.80;99.90
5280;DHT22;2663;53.588;10.010;2023-02-11T05:48:52;7.80;99.90
5280;DHT22;2663;53.588;10.010;2023-02-11T05:51:19;9.10;99.90
5280;DHT22;2663;53.588;10.010;2023-02-11T05:53:45;7.90;99.90
5280;DHT22;2663;53.588;10.010;2023-02-11T05:56:12;7.90;99.90
5280;DHT22;2663;53.588;10.010;2023-02-11T05:58:40;7.80;99.90
5280;DHT22;2663;53.588;10.010;2023-02-11T06:01:06;7.90;99.90
5280;DHT22;2663;53.588;10.010;2023-02-11T06:03:33;8.00;99.90
5280;DHT22;2663;53.588;10.010;2023-02-11T06:06:00;8.00;99.90
5280;DHT22;2663;53.588;10.010;2023-02-11T06:08:26;7.90;99.90
5280;DHT22;2663;53.588;10.010;2023-02-11T06:10:53;8.00;99.90
5280;DHT22;2663;53.588;10.010;2023-02-11T06:13:19;7.90;99.90
5280;DHT22;2663;53.588;10.010;2023-02-11T06:15:58;8.00;99.90
5280;DHT22;2663;53.588;10.010;2023-02-11T06:18:25;8.00;99.90
5280;DHT22;2663;53.588;10.010;2023-02-11T06:20:51;7.90;99.90
5280;DHT22;2663;53.588;10.010;2023-02-11T06:23:18;8.00;99.90
5280;DHT22;2663;53.588;10.010;2023-02-11T06:25:45;8.00;99.90
5280;DHT22;2663;53.588;10.010;2023-02-11T06:28:12;8.10;99.90
5280;DHT22;2663;53.588;10.010;2023-02-11T06:30:39;8.00;99.90
5280;DHT22;2663;53.588;10.010;2023-02-11T06:33:05;8.20;99.90
5280;DHT22;2663;53.588;10.010;2023-02-11T06:35:32;8.10;99.90
5280;DHT22;2663;53.588;10.010;2023-02-11T06:38:00;8.10;99.90
5280;DHT22;2663;53.588;10.010;2023-02-11T06:40:27;8.10;99.90
5280;DHT22;2663;53.588;10.010;2023-02-11T06:42:54;8.10;99.90
5280;DHT22;2663;53.588;10.010;2023-02-11T06:45:20;8.10;99.90
5280;DHT22;2663;53.588;10.010;2023-02-11T06:47:50;8.10;99.90
5280;DHT22;2663;53.588;10.010;2023-02-11T06:50:17;8.10;99.90
5280;DHT22;2663;53.588;10.010;2023-02-11T06:52:43;8.10;99.90
5280;DHT22;2663;53.588;10.010;2023-02-11T06:55:10;8.10;99.90
5280;DHT22;2663;53.588;10.010;2023-02-11T06:57:37;8.10;99.90
5280;DHT22;2663;53.588;10.010;2023-02-11T07:00:04;8.10;99.90
5280;DHT22;2663;53.588;10.010;2023-02-11T07:02:31;8.10;99.90
5280;DHT22;2663;53.588;10.010;2023-02-11T07:04:58;8.10;99.90
5280;DHT22;2663;53.588;10.010;2023-02-11T07:07:24;8.10;99.90
5280;DHT22;2663;53.588;10.010;2023-02-11T07:09:52;8.10;99.90
5280;DHT22;2663;53.588;10.010;2023-02-11T07:12:19;8.10;99.90
5280;DHT22;2663;53.588;10.010;2023-02-11T07:14:45;9.60;99.90
5280;DHT22;2663;53.588;10.010;2023-02-11T07:17:12;8.10;99.90
5280;DHT22;2663;53.588;10.010;2023-02-11T07:19:39;8.10;99.90
5280;DHT22;2663;53.588;10.010;2023-02-11T07:22:05;8.10;99.90
5280;DHT22;2663;53.588;10.010;2023-02-11T07:24:32;8.10;99.90
5280;DHT22;2663;53.588;10.010;2023-02-11T07:26:59;8.20;99.90
5280;DHT22;2663;53.588;10.010;2023-02-11T07:29:25;8.10;99.90
5280;DHT22;2663;53.588;10.010;2023-02-11T07:31:52;8.10;99.90
5280;DHT22;2663;53.588;10.010;2023-02-11T07:34:19;8.10;99.90
5280;DHT22;2663;53.588;10.010;2023-02-11T07:36:45;8.20;99.90
5280;DHT22;2663;53.588;10.010;2023-02-11T07:39:14;8.20;99.90
5280;DHT22;2663;53.588;10.010;2023-02-11T07:41:41;8.20;99.90
5280;DHT22;2663;53.588;10.010;2023-02-11T07:44:08;8.10;99.90
5280;DHT22;2663;53.588;10.010;2023-02-11T07:46:35;8.20;99.90
5280;DHT22;2663;53.588;10.010;2023-02-11T07:49:02;8.20;99.90
5280;DHT22;2663;53.588;10.010;2023-02-11T07:51:30;8.20;99.90
5280;DHT22;2663;53.588;10.010;2023-02-11T07:53:58;8.20;99.90
5280;DHT22;2663;53.588;10.010;2023-02-11T07:56:26;8.20;99.90
5280;DHT22;2663;53.588;10.010;2023-02-11T07:58:54;8.30;99.90
5280;DHT22;2663;53.588;10.010;2023-02-11T08:01:23;8.20;99.90
5280;DHT22;2663;53.588;10.010;2023-02-11T08:03:55;8.20;99.90
5280;DHT22;2663;53.588;10.010;2023-02-11T08:06:24;8.30;99.90
5280;DHT22;2663;53.588;10.010;2023-02-11T08:08:51;8.20;99.90
5280;DHT22;2663;53.588;10.010;2023-02-11T08:11:21;8.20;99.90
5280;DHT22;2663;53.588;10.010;2023-02-11T08:13:48;8.20;99.90
5280;DHT22;2663;53.588;10.010;2023-02-11T08:16:30;8.20;99.90
5280;DHT22;2663;53.588;10.010;2023-02-11T08:19:00;8.20;99.90
5280;DHT22;2663;53.588;10.010;2023-02-11T08:21:27;8.20;99.90
5280;DHT22;2663;53.588;10.010;2023-02-11T08:23:55;8.20;99.90
5280;DHT22;2663;53.588;10.010;2023-02-11T08:26:26;8.30;99.90
5280;DHT22;2663;53.588;10.010;2023-02-11T08:28:56;8.30;99.90
5280;DHT22;2663;53.588;10.010;2023-02-11T08:31:26;8.20;99.90
5280;DHT22;2663;53.588;10.010;2023-02-11T08:33:54;8.20;99.90
5280;DHT22;2663;53.588;10.010;2023-02-11T08:36:26;8.30;99.90
5280;DHT22;2663;53.588;10.010;2023-02-11T08:38:55;8.30;99.90
5280;DHT22;2663;53.588;10.010;2023-02-11T08:41:42;8.30;99.90
5280;DHT22;2663;53.588;10.010;2023-02-11T08:44:09;8.30;99.90
5280;DHT22;2663;53.588;10.010;2023-02-11T08:46:35;8.30;99.90
5280;DHT22;2663;53.588;10.010;2023-02-11T08:49:02;8.30;99.90
5280;DHT22;2663;53.588;10.010;2023-02-11T08:51:29;8.30;99.90
5280;DHT22;2663;53.588;10.010;2023-02-11T08:53:57;8.30;99.90
5280;DHT22;2663;53.588;10.010;2023-02-11T08:56:25;8.20;99.90
5280;DHT22;2663;53.588;10.010;2023-02-11T08:58:52;8.20;99.90
5280;DHT22;2663;53.588;10.010;2023-02-11T09:01:24;8.40;99.90
5280;DHT22;2663;53.588;10.010;2023-02-11T09:03:52;8.20;99.90
5280;DHT22;2663;53.588;10.010;2023-02-11T09:06:19;8.30;99.90
5280;DHT22;2663;53.588;10.010;2023-02-11T09:08:48;8.30;99.90
5280;DHT22;2663;53.588;10.010;2023-02-11T09:11:17;8.30;99.90
5280;DHT22;2663;53.588;10.010;2023-02-11T09:13:45;8.30;99.90
5280;DHT22;2663;53.588;10.010;2023-02-11T09:16:17;8.30;99.90
5280;DHT22;2663;53.588;10.010;2023-02-11T09:18:45;8.30;99.90
5280;DHT22;2663;53.588;10.010;2023-02-11T09:21:12;8.30;99.90
5280;DHT22;2663;53.588;10.010;2023-02-11T09:23:39;8.30;99.90
5280;DHT22;2663;53.588;10.010;2023-02-11T09:26:17;8.40;99.90
5280;DHT22;2663;53.588;10.010;2023-02-11T09:28:44;8.40;99.90
5280;DHT22;2663;53.588;10.010;2023-02-11T09:31:14;8.40;99.90
5280;DHT22;2663;53.588;10.010;2023-02-11T09:33:43;8.30;99.90
5280;DHT22;2663;53.588;10.010;2023-02-11T09:36:18;8.30;99.90
5280;DHT22;2663;53.588;10.010;2023-02-11T09:38:45;8.40;99.90
5280;DHT22;2663;53.588;10.010;2023-02-11T09:43:56;8.50;99.90
5280;DHT22;2663;53.588;10.010;2023-02-11T09:46:25;8.50;99.90
5280;DHT22;2663;53.588;10.010;2023-02-11T09:48:54;8.50;99.90
5280;DHT22;2663;53.588;10.010;2023-02-11T09:51:43;9.10;99.90
5280;DHT22;2663;53.588;10.010;2023-02-11T09:54:21;8.80;99.90
5280;DHT22;2663;53.588;10.010;2023-02-11T09:56:48;8.70;99.90
5280;DHT22;2663;53.588;10.010;2023-02-11T09:59:15;8.60;99.90
5280;DHT22;2663;53.588;10.010;2023-02-11T10:01:49;8.60;99.90
5280;DHT22;2663;53.588;10.010;2023-02-11T10:04:43;8.80;99.90
5280;DHT22;2663;53.588;10.010;2023-02-11T10:07:29;8.60;99.90
5280;DHT22;2663;53.588;10.010;2023-02-11T10:10:12;8.70;99.90
5280;DHT22;2663;53.588;10.010;2023-02-11T10:16:19;8.70;99.90
5280;DHT22;2663;53.588;10.010;2023-02-11T10:19:07;8.70;99.90
5280;DHT22;2663;53.588;10.010;2023-02-11T10:24:24;8.70;99.90
5280;DHT22;2663;53.588;10.010;2023-02-11T10:26:51;8.70;99.90
5280;DHT22;2663;53.588;10.010;2023-02-11T10:29:37;8.70;99.90
5280;DHT22;2663;53.588;10.010;2023-02-11T10:32:28;9.30;99.90
5280;DHT22;2663;53.588;10.010;2023-02-11T10:35:01;9.40;99.90
5280;DHT22;2663;53.588;10.010;2023-02-11T10:37:29;9.40;99.90
5280;DHT22;2663;53.588;10.010;2023-02-11T10:39:56;9.30;99.90
5280;DHT22;2663;53.588;10.010;2023-02-11T10:42:24;9.20;99.90
5280;DHT22;2663;53.588;10.010;2023-02-11T10:45:01;9.20;99.90
5280;DHT22;2663;53.588;10.010;2023-02-11T10:47:32;9.20;99.90
5280;DHT22;2663;53.588;10.010;2023-02-11T10:49:59;9.10;99.90
5280;DHT22;2663;53.588;10.010;2023-02-11T10:52:29;9.10;99.90
5280;DHT22;2663;53.588;10.010;2023-02-11T10:55:31;9.10;99.90
5280;DHT22;2663;53.588;10.010;2023-02-11T10:58:00;9.10;99.90
5280;DHT22;2663;53.588;10.010;2023-02-11T11:00:36;9.00;99.90
5280;DHT22;2663;53.588;10.010;2023-02-11T11:03:20;9.00;99.90
5280;DHT22;2663;53.588;10.010;2023-02-11T11:05:59;9.00;99.90
5280;DHT22;2663;53.588;10.010;2023-02-11T11:08:45;9.00;99.90
5280;DHT22;2663;53.588;10.010;2023-02-11T11:11:21;9.00;99.90
5280;DHT22;2663;53.588;10.010;2023-02-11T11:18:50;9.00;99.90
5280;DHT22;2663;53.588;10.010;2023-02-11T11:21:23;8.90;99.90
5280;DHT22;2663;53.588;10.010;2023-02-11T11:23:58;8.90;99.90
5280;DHT22;2663;53.588;10.010;2023-02-11T11:26:44;8.90;99.90
5280;DHT22;2663;53.588;10.010;2023-02-11T11:29:25;8.90;99.90
5280;DHT22;2663;53.588;10.010;2023-02-11T11:31:58;8.90;99.90
5280;DHT22;2663;53.588;10.010;2023-02-11T11:36:57;8.90;99.90
5280;DHT22;2663;53.588;10.010;2023-02-11T11:39:25;9.00;99.90
5280;DHT22;2663;53.588;10.010;2023-02-11T11:42:01;9.00;99.90
5280;DHT22;2663;53.588;10.010;2023-02-11T11:44:32;9.00;99.90
5280;DHT22;2663;53.588;10.010;2023-02-11T11:47:10;9.00;99.90
5280;DHT22;2663;53.588;10.010;2023-02-11T11:49:48;9.00;99.90
5280;DHT22;2663;53.588;10.010;2023-02-11T11:52:33;9.00;99.90
5280;DHT22;2663;53.588;10.010;2023-02-11T11:57:42;9.00;99.90
5280;DHT22;2663;53.588;10.010;2023-02-11T12:03:45;9.10;99.90
5280;DHT22;2663;53.588;10.010;2023-02-11T12:09:19;9.20;99.90
5280;DHT22;2663;53.588;10.010;2023-02-11T12:25:52;9.10;99.90
5280;DHT22;2663;53.588;10.010;2023-02-11T12:28:42;9.20;99.90
5280;DHT22;2663;53.588;10.010;2023-02-11T12:31:52;9.20;99.90
5280;DHT22;2663;53.588;10.010;2023-02-11T12:34:34;9.20;99.90
5280;DHT22;2663;53.588;10.010;2023-02-11T12:37:42;9.20;99.90
5280;DHT22;2663;53.588;10.010;2023-02-11T12:46:00;9.10;99.90
5280;DHT22;2663;53.588;10.010;2023-02-11T12:48:49;9.20;99.90
5280;DHT22;2663;53.588;10.010;2023-02-11T12:51:29;9.20;99.90
5280;DHT22;2663;53.588;10.010;2023-02-11T12:54:35;9.10;99.90
5280;DHT22;2663;53.588;10.010;2023-02-11T12:57:17;9.20;99.90
5280;DHT22;2663;53.588;10.010;2023-02-11T12:59:50;9.20;99.90
5280;DHT22;2663;53.588;10.010;2023-02-11T13:02:31;9.10;99.90
5280;DHT22;2663;53.588;10.010;2023-02-11T13:05:18;9.10;99.90
5280;DHT22;2663;53.588;10.010;2023-02-11T13:07:49;9.10;99.90
5280;DHT22;2663;53.588;10.010;2023-02-11T13:10:30;9.10;99.90
5280;DHT22;2663;53.588;10.010;2023-02-11T13:12:59;9.20;99.90
5280;DHT22;2663;53.588;10.010;2023-02-11T13:15:47;9.10;99.90
5280;DHT22;2663;53.588;10.010;2023-02-11T13:18:21;9.10;99.90
5280;DHT22;2663;53.588;10.010;2023-02-11T13:21:18;9.10;99.90
5280;DHT22;2663;53.588;10.010;2023-02-11T13:26:20;9.20;99.90
5280;DHT22;2663;53.588;10.010;2023-02-11T13:28:55;9.10;99.90
5280;DHT22;2663;53.588;10.010;2023-02-11T13:31:22;9.20;99.90
5280;DHT22;2663;53.588;10.010;2023-02-11T13:33:53;9.20;99.90
5280;DHT22;2663;53.588;10.010;2023-02-11T13:36:22;9.10;99.90
5280;DHT22;2663;53.588;10.010;2023-02-11T13:39:04;9.20;99.90
5280;DHT22;2663;53.588;10.010;2023-02-11T13:41:38;9.20;99.90
5280;DHT22;2663;53.588;10.010;2023-02-11T13:47:01;9.20;99.90
5280;DHT22;2663;53.588;10.010;2023-02-11T13:49:38;9.20;99.90
5280;DHT22;2663;53.588;10.010;2023-02-11T13:52:36;8.10;99.90
5280;DHT22;2663;53.588;10.010;2023-02-11T13:55:19;9.20;99.90
5280;DHT22;2663;53.588;10.010;2023-02-11T14:06:15;9.30;99.90
5280;DHT22;2663;53.588;10.010;2023-02-11T14:14:20;9.30;99.90
5280;DHT22;2663;53.588;10.010;2023-02-11T14:19:34;9.30;99.90
5280;DHT22;2663;53.588;10.010;2023-02-11T14:22:03;9.20;99.90
5280;DHT22;2663;53.588;10.010;2023-02-11T14:27:38;9.20;99.90
5280;DHT22;2663;53.588;10.010;2023-02-11T14:33:53;9.20;99.90
5280;DHT22;2663;53.588;10.010;2023-02-11T14:39:27;9.30;99.90
5280;DHT22;2663;53.588;10.010;2023-02-11T14:41:59;9.30;99.90
5280;DHT22;2663;53.588;10.010;2023-02-11T14:44:29;9.30;99.90
5280;DHT22;2663;53.588;10.010;2023-02-11T14:46:57;9.30;99.90
5280;DHT22;2663;53.588;10.010;2023-02-11T14:49:34;9.30;99.90
5280;DHT22;2663;53.588;10.010;2023-02-11T14:54:49;9.20;99.90
5280;DHT22;2663;53.588;10.010;2023-02-11T14:57:18;9.20;99.90
5280;DHT22;2663;53.588;10.010;2023-02-11T14:59:58;9.20;99.90
5280;DHT22;2663;53.588;10.010;2023-02-11T15:02:32;9.20;99.90
5280;DHT22;2663;53.588;10.010;2023-02-11T15:05:24;9.30;99.90
5280;DHT22;2663;53.588;10.010;2023-02-11T15:07:59;9.40;99.90
5280;DHT22;2663;53.588;10.010;2023-02-11T15:10:42;9.40;99.90
5280;DHT22;2663;53.588;10.010;2023-02-11T15:13:16;9.20;99.90
5280;DHT22;2663;53.588;10.010;2023-02-11T15:15:44;9.10;99.90
5280;DHT22;2663;53.588;10.010;2023-02-11T15:18:20;9.10;99.90
5280;DHT22;2663;53.588;10.010;2023-02-11T15:20:48;9.00;99.90
5280;DHT22;2663;53.588;10.010;2023-02-11T15:23:21;8.90;99.90
5280;DHT22;2663;53.588;10.010;2023-02-11T15:25:48;8.90;99.90
5280;DHT22;2663;53.588;10.010;2023-02-11T15:28:24;8.80;99.90
5280;DHT22;2663;53.588;10.010;2023-02-11T15:31:15;8.80;99.90
5280;DHT22;2663;53.588;10.010;2023-02-11T15:33:42;8.70;99.90
5280;DHT22;2663;53.588;10.010;2023-02-11T15:36:11;8.70;99.90
5280;DHT22;2663;53.588;10.010;2023-02-11T15:38:38;8.70;99.90
5280;DHT22;2663;53.588;10.010;2023-02-11T15:41:06;8.80;99.90
5280;DHT22;2663;53.588;10.010;2023-02-11T15:46:14;8.70;99.90
5280;DHT22;2663;53.588;10.010;2023-02-11T15:48:50;7.30;99.90
5280;DHT22;2663;53.588;10.010;2023-02-11T15:51:28;8.60;99.90
5280;DHT22;2663;53.588;10.010;2023-02-11T15:54:01;8.60;99.90
5280;DHT22;2663;53.588;10.010;2023-02-11T15:56:34;8.50;99.90
5280;DHT22;2663;53.588;10.010;2023-02-11T15:59:18;8.50;99.90
5280;DHT22;2663;53.588;10.010;2023-02-11T16:01:46;8.50;99.90
5280;DHT22;2663;53.588;10.010;2023-02-11T16:04:33;8.50;99.90
5280;DHT22;2663;53.588;10.010;2023-02-11T16:07:01;8.50;99.90
5280;DHT22;2663;53.588;10.010;2023-02-11T16:09:33;8.50;99.90
5280;DHT22;2663;53.588;10.010;2023-02-11T16:12:03;8.50;99.90
5280;DHT22;2663;53.588;10.010;2023-02-11T16:14:43;8.40;99.90
5280;DHT22;2663;53.588;10.010;2023-02-11T16:17:34;8.40;99.90
5280;DHT22;2663;53.588;10.010;2023-02-11T16:19:59;8.40;99.90
5280;DHT22;2663;53.588;10.010;2023-02-11T16:22:28;8.50;99.90
5280;DHT22;2663;53.588;10.010;2023-02-11T16:24:57;8.50;99.90
5280;DHT22;2663;53.588;10.010;2023-02-11T16:27:39;8.50;99.90
5280;DHT22;2663;53.588;10.010;2023-02-11T16:32:49;8.50;99.90
5280;DHT22;2663;53.588;10.010;2023-02-11T16:35:19;8.50;99.90
5280;DHT22;2663;53.588;10.010;2023-02-11T16:37:51;8.50;99.90
5280;DHT22;2663;53.588;10.010;2023-02-11T16:40:21;8.50;99.90
5280;DHT22;2663;53.588;10.010;2023-02-11T16:42:49;8.50;99.90
5280;DHT22;2663;53.588;10.010;2023-02-11T16:45:18;8.60;99.90
5280;DHT22;2663;53.588;10.010;2023-02-11T16:47:44;8.50;99.90
5280;DHT22;2663;53.588;10.010;2023-02-11T16:50:19;8.40;99.90
5280;DHT22;2663;53.588;10.010;2023-02-11T16:52:47;8.40;99.90
5280;DHT22;2663;53.588;10.010;2023-02-11T16:55:14;8.40;99.90
5280;DHT22;2663;53.588;10.010;2023-02-11T16:57:41;8.40;99.90
5280;DHT22;2663;53.588;10.010;2023-02-11T17:00:08;8.40;99.90
5280;DHT22;2663;53.588;10.010;2023-02-11T17:02:36;8.40;99.90
5280;DHT22;2663;53.588;10.010;2023-02-11T17:05:05;8.50;99.90
5280;DHT22;2663;53.588;10.010;2023-02-11T17:07:33;8.90;99.90
5280;DHT22;2663;53.588;10.010;2023-02-11T17:10:00;8.50;99.90
5280;DHT22;2663;53.588;10.010;2023-02-11T17:12:27;8.50;99.90
5280;DHT22;2663;53.588;10.010;2023-02-11T17:14:54;8.40;99.90
5280;DHT22;2663;53.588;10.010;2023-02-11T17:17:21;8.40;99.90
5280;DHT22;2663;53.588;10.010;2023-02-11T17:19:49;8.40;99.90
5280;DHT22;2663;53.588;10.010;2023-02-11T17:22:16;8.50;99.90
5280;DHT22;2663;53.588;10.010;2023-02-11T17:24:44;8.50;99.90
5280;DHT22;2663;53.588;10.010;2023-02-11T17:27:12;8.50;99.90
5280;DHT22;2663;53.588;10.010;2023-02-11T17:29:39;8.40;99.90
5280;DHT22;2663;53.588;10.010;2023-02-11T17:32:06;8.40;99.90
5280;DHT22;2663;53.588;10.010;2023-02-11T17:34:32;8.40;99.90
5280;DHT22;2663;53.588;10.010;2023-02-11T17:36:59;8.30;99.90
5280;DHT22;2663;53.588;10.010;2023-02-11T17:39:28;8.40;99.90
5280;DHT22;2663;53.588;10.010;2023-02-11T17:41:55;8.40;99.90
5280;DHT22;2663;53.588;10.010;2023-02-11T17:44:22;8.50;99.90
5280;DHT22;2663;53.588;10.010;2023-02-11T17:46:49;8.50;99.90
5280;DHT22;2663;53.588;10.010;2023-02-11T17:49:15;8.50;99.90
5280;DHT22;2663;53.588;10.010;2023-02-11T17:51:42;8.60;99.90
5280;DHT22;2663;53.588;10.010;2023-02-11T17:54:12;8.50;99.90
5280;DHT22;2663;53.588;10.010;2023-02-11T17:56:40;8.50;99.90
5280;DHT22;2663;53.588;10.010;2023-02-11T17:59:07;8.40;99.90
5280;DHT22;2663;53.588;10.010;2023-02-11T18:01:36;8.40;99.90
5280;DHT22;2663;53.588;10.010;2023-02-11T18:04:04;9.60;99.90
5280;DHT22;2663;53.588;10.010;2023-02-11T18:06:31;8.40;99.90
5280;DHT22;2663;53.588;10.010;2023-02-11T18:09:01;8.30;99.90
5280;DHT22;2663;53.588;10.010;2023-02-11T18:11:31;8.40;99.90
5280;DHT22;2663;53.588;10.010;2023-02-11T18:13:58;8.40;99.90